sensor_id;sensor_type;location;lat;lon;timestamp;P1;durP1;ratioP1;P2;durP2;ratioP2
45970;SDS011;31681;48.982;8.394;2023-03-07T00:01:39;18.07;;;9.27;;
45970;SDS011;31681;48.982;8.394;2023-03-07T00:04:04;18.80;;;9.30;;
45970;SDS011;31681;48.982;8.394;2023-03-07T00:06:30;18.83;;;9.43;;
45970;SDS011;31681;48.982;8.394;2023-03-07T00:08:56;15.20;;;8.33;;
45970;SDS011;31681;48.982;8.394;2023-03-07T00:11:24;16.87;;;8.77;;
45970;SDS011;31681;48.982;8.394;2023-03-07T00:13:50;15.23;;;8.37;;
45970;SDS011;31681;48.982;8.394;2023-03-07T00:16:18;17.10;;;8.57;;
45970;SDS011;31681;48.982;8.394;2023-03-07T00:18:45;15.67;;;8.20;;
45970;SDS011;31681;48.982;8.394;2023-03-07T00:21:12;17.07;;;8.77;;
45970;SDS011;31681;48.982;8.394;2023-03-07T00:23:39;17.70;;;8.90;;
45970;SDS011;31681;48.982;8.394;2023-03-07T00:26:07;15.53;;;8.87;;
45970;SDS011;31681;48.982;8.394;2023-03-07T00:28:33;17.00;;;8.67;;
45970;SDS011;31681;48.982;8.394;2023-03-07T00:31:03;13.50;;;7.93;;
45970;SDS011;31681;48.982;8.394;2023-03-07T00:33:31;16.90;;;9.17;;
45970;SDS011;31681;48.982;8.394;2023-03-07T00:35:58;18.07;;;9.20;;
45970;SDS011;31681;48.982;8.394;2023-03-07T00:38:25;16.90;;;8.77;;
45970;SDS011;31681;48.982;8.394;2023-03-07T00:41:01;16.50;;;8.23;;
45970;SDS011;31681;48.982;8.394;2023-03-07T00:43:31;15.47;;;8.90;;
45970;SDS011;31681;48.982;8.394;2023-03-07T00:45:57;17.13;;;8.47;;
45970;SDS011;31681;48.982;8.394;2023-03-07T00:48:24;16.67;;;8.60;;
45970;SDS011;31681;48.982;8.394;2023-03-07T00:50:50;14.13;;;8.27;;
45970;SDS011;31681;48.982;8.394;2023-03-07T00:53:16;15.93;;;7.93;;
45970;SDS011;31681;48.982;8.394;2023-03-07T00:55:52;15.60;;;8.23;;
45970;SDS011;31681;48.982;8.394;2023-03-07T00:58:22;18.83;;;8.13;;
45970;SDS011;31681;48.982;8.394;2023-03-07T01:00:49;17.20;;;9.63;;
45970;SDS011;31681;48.982;8.394;2023-03-07T01:03:14;17.07;;;8.83;;
45970;SDS011;31681;48.982;8.394;2023-03-07T01:05:40;16.87;;;8.73;;
45970;SDS011;31681;48.982;8.394;2023-03-07T01:08:06;15.90;;;9.10;;
45970;SDS011;31681;48.982;8.394;2023-03-07T01:10:32;14.80;;;8.27;;
45970;SDS011;31681;48.982;8.394;2023-03-07T01:12:58;15.37;;;8.53;;
45970;SDS011;31681;48.982;8.394;2023-03-07T01:15:24;17.60;;;8.00;;
45970;SDS011;31681;48.982;8.394;2023-03-07T01:17:50;18.87;;;8.97;;
45970;SDS011;31681;48.982;8.394;2023-03-07T01:20:16;17.10;;;8.77;;
45970;SDS011;31681;48.982;8.394;2023-03-07T01:22:41;18.53;;;8.33;;
45970;SDS011;31681;48.982;8.394;2023-03-07T01:25:07;14.77;;;8.20;;
45970;SDS011;31681;48.982;8.394;2023-03-07T01:27:33;17.77;;;8.90;;
45970;SDS011;31681;48.982;8.394;2023-03-07T01:29:59;17.83;;;10.33;;
45970;SDS011;31681;48.982;8.394;2023-03-07T01:32:24;18.87;;;9.87;;
45970;SDS011;31681;48.982;8.394;2023-03-07T01:34:50;17.30;;;8.83;;
45970;SDS011;31681;48.982;8.394;2023-03-07T01:37:15;15.20;;;8.80;;
45970;SDS011;31681;48.982;8.394;2023-03-07T01:39:41;18.80;;;8.87;;
45970;SDS011;31681;48.982;8.394;2023-03-07T01:42:11;21.00;;;9.47;;
45970;SDS011;31681;48.982;8.394;2023-03-07T01:47:40;21.40;;;10.27;;
45970;SDS011;31681;48.982;8.394;2023-03-07T01:50:10;22.37;;;9.87;;
45970;SDS011;31681;48.982;8.394;2023-03-07T01:52:39;18.67;;;9.53;;
45970;SDS011;31681;48.982;8.394;2023-03-07T01:55:23;17.97;;;9.10;;
45970;SDS011;31681;48.982;8.394;2023-03-07T01:57:55;17.10;;;9.37;;
45970;SDS011;31681;48.982;8.394;2023-03-07T02:00:24;22.63;;;11.67;;
45970;SDS011;31681;48.982;8.394;2023-03-07T02:05:38;19.60;;;10.30;;
45970;SDS011;31681;48.982;8.394;2023-03-07T02:08:07;18.83;;;10.07;;
45970;SDS011;31681;48.982;8.394;2023-03-07T02:10:35;21.37;;;9.27;;
45970;SDS011;31681;48.982;8.394;2023-03-07T02:13:02;19.33;;;9.70;;
45970;SDS011;31681;48.982;8.394;2023-03-07T02:15:28;21.03;;;9.87;;
45970;SDS011;31681;48.982;8.394;2023-03-07T02:17:53;22.03;;;10.43;;
45970;SDS011;31681;48.982;8.394;2023-03-07T02:22:48;20.13;;;10.17;;
45970;SDS011;31681;48.982;8.394;2023-03-07T02:27:52;18.60;;;9.77;;
45970;SDS011;31681;48.982;8.394;2023-03-07T02:30:21;16.63;;;9.10;;
45970;SDS011;31681;48.982;8.394;2023-03-07T02:32:50;21.03;;;10.23;;
45970;SDS011;31681;48.982;8.394;2023-03-07T02:35:17;21.80;;;10.50;;
45970;SDS011;31681;48.982;8.394;2023-03-07T02:37:51;20.23;;;10.30;;
45970;SDS011;31681;48.982;8.394;2023-03-07T02:40:21;20.57;;;9.53;;
45970;SDS011;31681;48.982;8.394;2023-03-07T02:42:49;21.57;;;11.20;;
45970;SDS011;31681;48.982;8.394;2023-03-07T02:45:17;20.10;;;10.07;;
45970;SDS011;31681;48.982;8.394;2023-03-07T02:47:44;18.90;;;9.53;;
45970;SDS011;31681;48.982;8.394;2023-03-07T02:50:12;21.47;;;9.87;;
45970;SDS011;31681;48.982;8.394;2023-03-07T02:52:41;21.30;;;9.77;;
45970;SDS011;31681;48.982;8.394;2023-03-07T02:55:08;19.00;;;9.27;;
45970;SDS011;31681;48.982;8.394;2023-03-07T02:57:37;20.73;;;10.07;;
45970;SDS011;31681;48.982;8.394;2023-03-07T03:00:04;19.93;;;10.00;;
45970;SDS011;31681;48.982;8.394;2023-03-07T03:02:34;21.43;;;10.07;;
45970;SDS011;31681;48.982;8.394;2023-03-07T03:04:59;18.57;;;9.57;;
45970;SDS011;31681;48.982;8.394;2023-03-07T03:07:25;20.37;;;10.13;;
45970;SDS011;31681;48.982;8.394;2023-03-07T03:09:50;17.13;;;9.63;;
45970;SDS011;31681;48.982;8.394;2023-03-07T03:12:16;18.63;;;10.10;;
45970;SDS011;31681;48.982;8.394;2023-03-07T03:14:42;18.00;;;9.53;;
45970;SDS011;31681;48.982;8.394;2023-03-07T03:17:07;19.07;;;9.37;;
45970;SDS011;31681;48.982;8.394;2023-03-07T03:19:34;15.97;;;9.43;;
45970;SDS011;31681;48.982;8.394;2023-03-07T03:22:00;22.00;;;9.70;;
45970;SDS011;31681;48.982;8.394;2023-03-07T03:24:28;19.70;;;9.43;;
45970;SDS011;31681;48.982;8.394;2023-03-07T03:26:55;16.53;;;8.73;;
45970;SDS011;31681;48.982;8.394;2023-03-07T03:29:22;20.27;;;9.40;;
45970;SDS011;31681;48.982;8.394;2023-03-07T03:31:51;19.80;;;9.57;;
45970;SDS011;31681;48.982;8.394;2023-03-07T03:34:17;17.93;;;8.67;;
45970;SDS011;31681;48.982;8.394;2023-03-07T03:36:44;16.83;;;9.73;;
45970;SDS011;31681;48.982;8.394;2023-03-07T03:39:10;19.60;;;9.43;;
45970;SDS011;31681;48.982;8.394;2023-03-07T03:41:39;16.87;;;8.37;;
45970;SDS011;31681;48.982;8.394;2023-03-07T03:44:05;16.40;;;8.77;;
45970;SDS011;31681;48.982;8.394;2023-03-07T03:46:31;16.97;;;8.87;;
45970;SDS011;31681;48.982;8.394;2023-03-07T03:48:57;15.53;;;8.33;;
45970;SDS011;31681;48.982;8.394;2023-03-07T03:51:25;17.43;;;8.73;;
45970;SDS011;31681;48.982;8.394;2023-03-07T03:53:53;17.83;;;9.47;;
45970;SDS011;31681;48.982;8.394;2023-03-07T03:56:20;19.97;;;8.97;;
45970;SDS011;31681;48.982;8.394;2023-03-07T03:58:47;16.23;;;9.50;;
45970;SDS011;31681;48.982;8.394;2023-03-07T04:01:18;14.80;;;8.20;;
45970;SDS011;31681;48.982;8.394;2023-03-07T04:03:46;17.03;;;8.07;;
45970;SDS011;31681;48.982;8.394;2023-03-07T04:06:18;15.10;;;8.27;;
45970;SDS011;31681;48.982;8.394;2023-03-07T04:08:48;13.97;;;8.23;;
45970;SDS011;31681;48.982;8.394;2023-03-07T04:11:14;15.67;;;8.47;;
45970;SDS011;31681;48.982;8.394;2023-03-07T04:13:40;15.03;;;8.37;;
45970;SDS011;31681;48.982;8.394;2023-03-07T04:16:06;15.80;;;7.97;;
45970;SDS011;31681;48.982;8.394;2023-03-07T04:18:33;15.97;;;8.67;;
45970;SDS011;31681;48.982;8.394;2023-03-07T04:20:59;18.33;;;8.43;;
45970;SDS011;31681;48.982;8.394;2023-03-07T04:23:24;17.63;;;9.77;;
45970;SDS011;31681;48.982;8.394;2023-03-07T04:25:54;16.30;;;8.90;;
45970;SDS011;31681;48.982;8.394;2023-03-07T04:28:25;15.83;;;8.47;;
45970;SDS011;31681;48.982;8.394;2023-03-07T04:30:53;14.20;;;7.97;;
45970;SDS011;31681;48.982;8.394;2023-03-07T04:33:19;16.23;;;7.47;;
45970;SDS011;31681;48.982;8.394;2023-03-07T04:35:45;15.07;;;7.83;;
45970;SDS011;31681;48.982;8.394;2023-03-07T04:38:11;13.33;;;7.23;;
45970;SDS011;31681;48.982;8.394;2023-03-07T04:40:37;15.83;;;8.17;;
45970;SDS011;31681;48.982;8.394;2023-03-07T04:43:04;15.43;;;8.23;;
45970;SDS011;31681;48.982;8.394;2023-03-07T04:45:33;15.63;;;7.90;;
45970;SDS011;31681;48.982;8.394;2023-03-07T04:48:01;12.83;;;7.17;;
45970;SDS011;31681;48.982;8.394;2023-03-07T04:50:28;15.93;;;7.93;;
45970;SDS011;31681;48.982;8.394;2023-03-07T04:52:54;16.43;;;8.20;;
45970;SDS011;31681;48.982;8.394;2023-03-07T04:55:20;17.87;;;7.23;;
45970;SDS011;31681;48.982;8.394;2023-03-07T04:57:46;14.03;;;8.13;;
45970;SDS011;31681;48.982;8.394;2023-03-07T05:00:12;13.07;;;7.17;;
45970;SDS011;31681;48.982;8.394;2023-03-07T05:02:39;14.17;;;7.83;;
45970;SDS011;31681;48.982;8.394;2023-03-07T05:05:04;13.77;;;7.20;;
45970;SDS011;31681;48.982;8.394;2023-03-07T05:07:31;13.00;;;7.53;;
45970;SDS011;31681;48.982;8.394;2023-03-07T05:09:56;12.63;;;6.87;;
45970;SDS011;31681;48.982;8.394;2023-03-07T05:12:22;14.80;;;7.90;;
45970;SDS011;31681;48.982;8.394;2023-03-07T05:14:49;11.87;;;6.80;;
45970;SDS011;31681;48.982;8.394;2023-03-07T05:17:14;14.93;;;8.63;;
45970;SDS011;31681;48.982;8.394;2023-03-07T05:19:40;14.23;;;7.43;;
45970;SDS011;31681;48.982;8.394;2023-03-07T05:22:06;11.63;;;6.93;;
45970;SDS011;31681;48.982;8.394;2023-03-07T05:24:32;14.10;;;7.27;;
45970;SDS011;31681;48.982;8.394;2023-03-07T05:26:58;15.87;;;7.53;;
45970;SDS011;31681;48.982;8.394;2023-03-07T05:29:24;14.67;;;7.10;;
45970;SDS011;31681;48.982;8.394;2023-03-07T05:31:49;14.63;;;7.20;;
45970;SDS011;31681;48.982;8.394;2023-03-07T05:34:15;14.80;;;7.70;;
45970;SDS011;31681;48.982;8.394;2023-03-07T05:36:41;12.80;;;7.07;;
45970;SDS011;31681;48.982;8.394;2023-03-07T05:39:07;15.70;;;8.10;;
45970;SDS011;31681;48.982;8.394;2023-03-07T05:41:34;15.53;;;7.57;;
45970;SDS011;31681;48.982;8.394;2023-03-07T05:44:00;13.10;;;7.23;;
45970;SDS011;31681;48.982;8.394;2023-03-07T05:46:25;11.63;;;6.50;;
45970;SDS011;31681;48.982;8.394;2023-03-07T05:48:51;12.10;;;6.53;;
45970;SDS011;31681;48.982;8.394;2023-03-07T05:51:17;15.67;;;7.20;;
45970;SDS011;31681;48.982;8.394;2023-03-07T05:53:42;15.87;;;7.47;;
45970;SDS011;31681;48.982;8.394;2023-03-07T05:56:10;11.90;;;7.37;;
45970;SDS011;31681;48.982;8.394;2023-03-07T05:58:37;14.17;;;7.40;;
45970;SDS011;31681;48.982;8.394;2023-03-07T06:01:02;15.33;;;7.63;;
45970;SDS011;31681;48.982;8.394;2023-03-07T06:03:30;13.13;;;6.33;;
45970;SDS011;31681;48.982;8.394;2023-03-07T06:05:56;12.63;;;7.03;;
45970;SDS011;31681;48.982;8.394;2023-03-07T06:08:21;15.20;;;7.07;;
45970;SDS011;31681;48.982;8.394;2023-03-07T06:10:50;13.50;;;7.17;;
45970;SDS011;31681;48.982;8.394;2023-03-07T06:13:19;13.50;;;6.87;;
45970;SDS011;31681;48.982;8.394;2023-03-07T06:15:51;13.77;;;7.53;;
45970;SDS011;31681;48.982;8.394;2023-03-07T06:18:20;14.50;;;7.57;;
45970;SDS011;31681;48.982;8.394;2023-03-07T06:20:53;14.90;;;7.63;;
45970;SDS011;31681;48.982;8.394;2023-03-07T06:23:20;14.40;;;7.63;;
45970;SDS011;31681;48.982;8.394;2023-03-07T06:25:46;16.53;;;7.80;;
45970;SDS011;31681;48.982;8.394;2023-03-07T06:28:13;12.37;;;7.07;;
45970;SDS011;31681;48.982;8.394;2023-03-07T06:30:38;13.63;;;7.27;;
45970;SDS011;31681;48.982;8.394;2023-03-07T06:33:04;15.43;;;7.57;;
45970;SDS011;31681;48.982;8.394;2023-03-07T06:35:29;13.77;;;7.83;;
45970;SDS011;31681;48.982;8.394;2023-03-07T06:37:54;13.43;;;6.70;;
45970;SDS011;31681;48.982;8.394;2023-03-07T06:40:20;14.63;;;7.60;;
45970;SDS011;31681;48.982;8.394;2023-03-07T06:42:46;13.30;;;7.80;;
45970;SDS011;31681;48.982;8.394;2023-03-07T06:45:12;13.43;;;7.47;;
45970;SDS011;31681;48.982;8.394;2023-03-07T06:47:37;14.20;;;7.30;;
45970;SDS011;31681;48.982;8.394;2023-03-07T06:50:05;15.13;;;7.50;;
45970;SDS011;31681;48.982;8.394;2023-03-07T06:52:32;10.70;;;6.80;;
45970;SDS011;31681;48.982;8.394;2023-03-07T06:54:58;13.83;;;7.77;;
45970;SDS011;31681;48.982;8.394;2023-03-07T06:57:26;12.73;;;7.77;;
45970;SDS011;31681;48.982;8.394;2023-03-07T06:59:51;13.10;;;6.87;;
45970;SDS011;31681;48.982;8.394;2023-03-07T07:02:17;12.57;;;7.10;;
45970;SDS011;31681;48.982;8.394;2023-03-07T07:04:42;11.30;;;6.80;;
45970;SDS011;31681;48.982;8.394;2023-03-07T07:07:08;13.63;;;7.80;;
45970;SDS011;31681;48.982;8.394;2023-03-07T07:09:34;14.00;;;7.23;;
45970;SDS011;31681;48.982;8.394;2023-03-07T07:11:59;12.60;;;7.43;;
45970;SDS011;31681;48.982;8.394;2023-03-07T07:14:25;15.17;;;7.17;;
45970;SDS011;31681;48.982;8.394;2023-03-07T07:16:50;12.70;;;7.03;;
45970;SDS011;31681;48.982;8.394;2023-03-07T07:19:16;15.13;;;8.03;;
45970;SDS011;31681;48.982;8.394;2023-03-07T07:21:42;12.53;;;6.80;;
45970;SDS011;31681;48.982;8.394;2023-03-07T07:24:11;11.67;;;7.13;;
45970;SDS011;31681;48.982;8.394;2023-03-07T07:26:36;13.97;;;7.27;;
45970;SDS011;31681;48.982;8.394;2023-03-07T07:29:02;12.33;;;6.43;;
45970;SDS011;31681;48.982;8.394;2023-03-07T07:31:28;13.73;;;7.63;;
45970;SDS011;31681;48.982;8.394;2023-03-07T07:33:54;11.47;;;7.23;;
45970;SDS011;31681;48.982;8.394;2023-03-07T07:36:20;13.70;;;8.00;;
45970;SDS011;31681;48.982;8.394;2023-03-07T07:38:48;13.30;;;7.13;;
45970;SDS011;31681;48.982;8.394;2023-03-07T07:41:14;13.03;;;7.00;;
45970;SDS011;31681;48.982;8.394;2023-03-07T07:43:40;13.70;;;7.07;;
45970;SDS011;31681;48.982;8.394;2023-03-07T07:46:24;13.47;;;6.07;;
45970;SDS011;31681;48.982;8.394;2023-03-07T07:48:53;12.37;;;6.87;;
45970;SDS011;31681;48.982;8.394;2023-03-07T07:51:19;14.07;;;6.53;;
45970;SDS011;31681;48.982;8.394;2023-03-07T07:53:45;11.30;;;6.90;;
45970;SDS011;31681;48.982;8.394;2023-03-07T07:56:10;13.47;;;6.53;;
45970;SDS011;31681;48.982;8.394;2023-03-07T07:58:36;13.40;;;6.80;;
45970;SDS011;31681;48.982;8.394;2023-03-07T08:01:12;10.87;;;6.53;;
45970;SDS011;31681;48.982;8.394;2023-03-07T08:03:45;13.17;;;6.83;;
45970;SDS011;31681;48.982;8.394;2023-03-07T08:06:10;12.27;;;6.67;;
45970;SDS011;31681;48.982;8.394;2023-03-07T08:08:37;10.60;;;6.57;;
45970;SDS011;31681;48.982;8.394;2023-03-07T08:11:02;9.87;;;6.30;;
45970;SDS011;31681;48.982;8.394;2023-03-07T08:13:28;11.00;;;6.40;;
45970;SDS011;31681;48.982;8.394;2023-03-07T08:15:54;13.40;;;6.47;;
45970;SDS011;31681;48.982;8.394;2023-03-07T08:18:20;11.07;;;6.53;;
45970;SDS011;31681;48.982;8.394;2023-03-07T08:20:45;12.03;;;7.13;;
45970;SDS011;31681;48.982;8.394;2023-03-07T08:23:11;13.63;;;7.33;;
45970;SDS011;31681;48.982;8.394;2023-03-07T08:25:36;12.37;;;6.87;;
45970;SDS011;31681;48.982;8.394;2023-03-07T08:28:02;12.30;;;7.87;;
45970;SDS011;31681;48.982;8.394;2023-03-07T08:30:30;14.63;;;6.57;;
45970;SDS011;31681;48.982;8.394;2023-03-07T08:32:57;13.27;;;6.60;;
45970;SDS011;31681;48.982;8.394;2023-03-07T08:35:23;14.50;;;6.87;;
45970;SDS011;31681;48.982;8.394;2023-03-07T08:37:53;13.53;;;7.13;;
45970;SDS011;31681;48.982;8.394;2023-03-07T08:40:20;13.30;;;6.60;;
45970;SDS011;31681;48.982;8.394;2023-03-07T08:42:48;11.70;;;6.63;;
45970;SDS011;31681;48.982;8.394;2023-03-07T08:45:13;13.13;;;6.43;;
45970;SDS011;31681;48.982;8.394;2023-03-07T08:47:39;10.77;;;5.97;;
45970;SDS011;31681;48.982;8.394;2023-03-07T08:50:05;12.53;;;7.23;;
45970;SDS011;31681;48.982;8.394;2023-03-07T08:52:30;11.97;;;6.47;;
45970;SDS011;31681;48.982;8.394;2023-03-07T08:54:56;10.50;;;5.87;;
45970;SDS011;31681;48.982;8.394;2023-03-07T08:57:22;12.57;;;6.30;;
45970;SDS011;31681;48.982;8.394;2023-03-07T08:59:48;13.67;;;7.03;;
45970;SDS011;31681;48.982;8.394;2023-03-07T09:02:14;12.00;;;6.47;;
45970;SDS011;31681;48.982;8.394;2023-03-07T09:04:39;12.40;;;7.63;;
45970;SDS011;31681;48.982;8.394;2023-03-07T09:07:05;15.47;;;7.23;;
45970;SDS011;31681;48.982;8.394;2023-03-07T09:09:31;10.30;;;6.03;;
45970;SDS011;31681;48.982;8.394;2023-03-07T09:11:56;12.87;;;7.00;;
45970;SDS011;31681;48.982;8.394;2023-03-07T09:14:22;14.63;;;7.30;;
45970;SDS011;31681;48.982;8.394;2023-03-07T09:16:48;10.70;;;6.67;;
45970;SDS011;31681;48.982;8.394;2023-03-07T09:19:13;13.87;;;7.30;;
45970;SDS011;31681;48.982;8.394;2023-03-07T09:21:39;11.90;;;6.57;;
45970;SDS011;31681;48.982;8.394;2023-03-07T09:24:05;12.60;;;7.23;;
45970;SDS011;31681;48.982;8.394;2023-03-07T09:26:33;12.87;;;7.63;;
45970;SDS011;31681;48.982;8.394;2023-03-07T09:28:58;9.77;;;6.20;;
45970;SDS011;31681;48.982;8.394;2023-03-07T09:31:24;14.63;;;7.47;;
45970;SDS011;31681;48.982;8.394;2023-03-07T09:33:50;14.53;;;7.43;;
45970;SDS011;31681;48.982;8.394;2023-03-07T09:36:16;12.17;;;6.77;;
45970;SDS011;31681;48.982;8.394;2023-03-07T09:38:43;13.03;;;6.80;;
45970;SDS011;31681;48.982;8.394;2023-03-07T09:41:17;12.17;;;7.10;;
45970;SDS011;31681;48.982;8.394;2023-03-07T09:47:32;10.97;;;5.60;;
45970;SDS011;31681;48.982;8.394;2023-03-07T09:53:35;11.27;;;6.47;;
45970;SDS011;31681;48.982;8.394;2023-03-07T09:56:00;12.87;;;6.37;;
45970;SDS011;31681;48.982;8.394;2023-03-07T09:58:29;11.73;;;6.43;;
45970;SDS011;31681;48.982;8.394;2023-03-07T10:00:56;10.50;;;5.73;;
45970;SDS011;31681;48.982;8.394;2023-03-07T10:08:43;13.07;;;6.27;;
45970;SDS011;31681;48.982;8.394;2023-03-07T10:11:16;9.83;;;5.53;;
45970;SDS011;31681;48.982;8.394;2023-03-07T10:16:50;11.50;;;5.80;;
45970;SDS011;31681;48.982;8.394;2023-03-07T10:28:31;10.23;;;6.27;;
45970;SDS011;31681;48.982;8.394;2023-03-07T10:33:53;14.23;;;6.30;;
45970;SDS011;31681;48.982;8.394;2023-03-07T10:37:03;13.80;;;6.80;;
45970;SDS011;31681;48.982;8.394;2023-03-07T10:41:49;10.30;;;5.83;;
45970;SDS011;31681;48.982;8.394;2023-03-07T10:44:15;12.70;;;6.80;;
45970;SDS011;31681;48.982;8.394;2023-03-07T10:46:44;12.27;;;6.97;;
45970;SDS011;31681;48.982;8.394;2023-03-07T10:49:15;12.03;;;6.00;;
45970;SDS011;31681;48.982;8.394;2023-03-07T10:54:15;9.33;;;5.53;;
45970;SDS011;31681;48.982;8.394;2023-03-07T10:57:17;11.53;;;6.17;;
45970;SDS011;31681;48.982;8.394;2023-03-07T10:59:39;11.77;;;6.33;;
45970;SDS011;31681;48.982;8.394;2023-03-07T11:04:48;12.37;;;6.53;;
45970;SDS011;31681;48.982;8.394;2023-03-07T11:09:57;8.37;;;5.33;;
45970;SDS011;31681;48.982;8.394;2023-03-07T11:12:25;14.03;;;6.90;;
45970;SDS011;31681;48.982;8.394;2023-03-07T11:14:54;8.53;;;5.57;;
45970;SDS011;31681;48.982;8.394;2023-03-07T11:17:26;10.13;;;6.10;;
45970;SDS011;31681;48.982;8.394;2023-03-07T11:20:11;11.60;;;6.07;;
45970;SDS011;31681;48.982;8.394;2023-03-07T11:22:43;10.93;;;5.80;;
45970;SDS011;31681;48.982;8.394;2023-03-07T11:25:17;10.40;;;5.90;;
45970;SDS011;31681;48.982;8.394;2023-03-07T11:35:33;10.03;;;5.77;;
45970;SDS011;31681;48.982;8.394;2023-03-07T11:43:49;9.10;;;5.57;;
45970;SDS011;31681;48.982;8.394;2023-03-07T11:56:57;8.20;;;5.00;;
45970;SDS011;31681;48.982;8.394;2023-03-07T12:01:59;13.27;;;6.00;;
45970;SDS011;31681;48.982;8.394;2023-03-07T12:18:34;11.40;;;6.17;;
45970;SDS011;31681;48.982;8.394;2023-03-07T12:24:12;12.00;;;5.70;;
45970;SDS011;31681;48.982;8.394;2023-03-07T12:26:58;9.80;;;6.07;;
45970;SDS011;31681;48.982;8.394;2023-03-07T12:31:52;9.83;;;5.30;;
45970;SDS011;31681;48.982;8.394;2023-03-07T12:34:38;12.53;;;6.30;;
45970;SDS011;31681;48.982;8.394;2023-03-07T12:37:12;11.43;;;5.93;;
45970;SDS011;31681;48.982;8.394;2023-03-07T12:39:57;12.40;;;5.40;;
45970;SDS011;31681;48.982;8.394;2023-03-07T12:42:43;10.73;;;5.40;;
45970;SDS011;31681;48.982;8.394;2023-03-07T12:45:20;8.37;;;5.00;;
45970;SDS011;31681;48.982;8.394;2023-03-07T12:47:57;9.50;;;5.70;;
45970;SDS011;31681;48.982;8.394;2023-03-07T12:55:59;8.93;;;5.47;;
45970;SDS011;31681;48.982;8.394;2023-03-07T12:58:46;7.87;;;5.10;;
45970;SDS011;31681;48.982;8.394;2023-03-07T13:01:26;7.57;;;5.00;;
45970;SDS011;31681;48.982;8.394;2023-03-07T13:04:05;9.50;;;4.97;;
45970;SDS011;31681;48.982;8.394;2023-03-07T13:06:35;9.97;;;5.07;;
45970;SDS011;31681;48.982;8.394;2023-03-07T13:09:03;12.40;;;4.83;;
45970;SDS011;31681;48.982;8.394;2023-03-07T13:11:31;9.23;;;5.30;;
45970;SDS011;31681;48.982;8.394;2023-03-07T13:14:02;11.10;;;5.17;;
45970;SDS011;31681;48.982;8.394;2023-03-07T13:21:59;7.93;;;4.83;;
45970;SDS011;31681;48.982;8.394;2023-03-07T13:27:02;8.87;;;5.30;;
45970;SDS011;31681;48.982;8.394;2023-03-07T13:35:51;8.38;;;4.85;;
45970;SDS011;31681;48.982;8.394;2023-03-07T13:40:55;11.25;;;5.30;;
45970;SDS011;31681;48.982;8.394;2023-03-07T13:53:19;12.37;;;5.17;;
45970;SDS011;31681;48.982;8.394;2023-03-07T13:55:52;10.83;;;4.60;;
45970;SDS011;31681;48.982;8.394;2023-03-07T13:58:32;10.67;;;5.03;;
45970;SDS011;31681;48.982;8.394;2023-03-07T14:01:00;8.13;;;4.90;;
45970;SDS011;31681;48.982;8.394;2023-03-07T14:03:34;7.90;;;4.30;;
45970;SDS011;31681;48.982;8.394;2023-03-07T14:06:07;7.57;;;4.87;;
45970;SDS011;31681;48.982;8.394;2023-03-07T14:08:36;9.50;;;4.47;;
45970;SDS011;31681;48.982;8.394;2023-03-07T14:11:03;9.87;;;5.03;;
45970;SDS011;31681;48.982;8.394;2023-03-07T14:13:52;8.70;;;4.60;;
45970;SDS011;31681;48.982;8.394;2023-03-07T14:16:49;7.20;;;4.23;;
45970;SDS011;31681;48.982;8.394;2023-03-07T14:19:38;7.27;;;4.40;;
45970;SDS011;31681;48.982;8.394;2023-03-07T14:22:27;7.50;;;4.63;;
45970;SDS011;31681;48.982;8.394;2023-03-07T14:27:48;7.87;;;4.40;;
45970;SDS011;31681;48.982;8.394;2023-03-07T14:30:16;7.83;;;4.63;;
45970;SDS011;31681;48.982;8.394;2023-03-07T14:32:42;7.70;;;4.67;;
45970;SDS011;31681;48.982;8.394;2023-03-07T14:35:07;9.37;;;4.33;;
45970;SDS011;31681;48.982;8.394;2023-03-07T14:37:41;7.50;;;4.37;;
45970;SDS011;31681;48.982;8.394;2023-03-07T14:45:47;7.17;;;4.67;;
45970;SDS011;31681;48.982;8.394;2023-03-07T14:51:17;9.20;;;4.63;;
45970;SDS011;31681;48.982;8.394;2023-03-07T14:53:45;8.67;;;4.50;;
45970;SDS011;31681;48.982;8.394;2023-03-07T14:56:13;8.10;;;4.50;;
45970;SDS011;31681;48.982;8.394;2023-03-07T14:58:47;7.50;;;4.37;;
45970;SDS011;31681;48.982;8.394;2023-03-07T15:01:17;9.93;;;4.60;;
45970;SDS011;31681;48.982;8.394;2023-03-07T15:03:44;8.03;;;4.83;;
45970;SDS011;31681;48.982;8.394;2023-03-07T15:06:14;7.20;;;4.70;;
45970;SDS011;31681;48.982;8.394;2023-03-07T15:08:41;7.87;;;4.40;;
45970;SDS011;31681;48.982;8.394;2023-03-07T15:13:42;6.07;;;4.07;;
45970;SDS011;31681;48.982;8.394;2023-03-07T15:16:12;7.70;;;4.23;;
45970;SDS011;31681;48.982;8.394;2023-03-07T15:18:44;8.27;;;4.10;;
45970;SDS011;31681;48.982;8.394;2023-03-07T15:21:21;7.57;;;3.77;;
45970;SDS011;31681;48.982;8.394;2023-03-07T15:23:50;8.57;;;4.23;;
45970;SDS011;31681;48.982;8.394;2023-03-07T15:26:18;8.37;;;5.17;;
45970;SDS011;31681;48.982;8.394;2023-03-07T15:28:45;8.83;;;5.00;;
45970;SDS011;31681;48.982;8.394;2023-03-07T15:31:11;6.70;;;4.30;;
45970;SDS011;31681;48.982;8.394;2023-03-07T15:33:39;8.50;;;4.80;;
45970;SDS011;31681;48.982;8.394;2023-03-07T15:42:07;7.77;;;5.03;;
45970;SDS011;31681;48.982;8.394;2023-03-07T15:44:51;9.87;;;4.90;;
45970;SDS011;31681;48.982;8.394;2023-03-07T15:47:21;10.03;;;5.33;;
45970;SDS011;31681;48.982;8.394;2023-03-07T15:49:50;8.13;;;5.00;;
45970;SDS011;31681;48.982;8.394;2023-03-07T15:52:20;8.43;;;5.37;;
45970;SDS011;31681;48.982;8.394;2023-03-07T15:54:51;10.53;;;5.40;;
45970;SDS011;31681;48.982;8.394;2023-03-07T15:57:20;10.23;;;5.47;;
45970;SDS011;31681;48.982;8.394;2023-03-07T15:59:49;8.83;;;5.10;;
45970;SDS011;31681;48.982;8.394;2023-03-07T16:05:06;12.50;;;5.33;;
45970;SDS011;31681;48.982;8.394;2023-03-07T16:07:53;10.87;;;5.07;;
45970;SDS011;31681;48.982;8.394;2023-03-07T16:10:21;9.53;;;5.57;;
45970;SDS011;31681;48.982;8.394;2023-03-07T16:12:51;10.63;;;5.50;;
45970;SDS011;31681;48.982;8.394;2023-03-07T16:15:17;10.43;;;5.60;;
45970;SDS011;31681;48.982;8.394;2023-03-07T16:17:44;10.60;;;6.37;;
45970;SDS011;31681;48.982;8.394;2023-03-07T16:20:13;10.37;;;5.57;;
45970;SDS011;31681;48.982;8.394;2023-03-07T16:22:43;9.63;;;5.37;;
45970;SDS011;31681;48.982;8.394;2023-03-07T16:25:08;10.50;;;5.70;;
45970;SDS011;31681;48.982;8.394;2023-03-07T16:27:35;8.17;;;4.87;;
45970;SDS011;31681;48.982;8.394;2023-03-07T16:30:05;11.70;;;5.60;;
45970;SDS011;31681;48.982;8.394;2023-03-07T16:32:39;8.20;;;4.93;;
45970;SDS011;31681;48.982;8.394;2023-03-07T16:35:18;8.97;;;5.23;;
45970;SDS011;31681;48.982;8.394;2023-03-07T16:37:45;10.73;;;5.37;;
45970;SDS011;31681;48.982;8.394;2023-03-07T16:40:11;9.97;;;5.43;;
45970;SDS011;31681;48.982;8.394;2023-03-07T16:42:42;9.63;;;5.57;;
45970;SDS011;31681;48.982;8.394;2023-03-07T16:45:13;9.60;;;5.33;;
45970;SDS011;31681;48.982;8.394;2023-03-07T16:47:43;9.20;;;5.20;;
45970;SDS011;31681;48.982;8.394;2023-03-07T16:50:12;9.77;;;4.73;;
45970;SDS011;31681;48.982;8.394;2023-03-07T16:52:41;10.57;;;5.50;;
45970;SDS011;31681;48.982;8.394;2023-03-07T16:55:08;10.80;;;5.40;;
45970;SDS011;31681;48.982;8.394;2023-03-07T16:57:39;9.17;;;5.00;;
45970;SDS011;31681;48.982;8.394;2023-03-07T17:00:07;8.17;;;5.13;;
45970;SDS011;31681;48.982;8.394;2023-03-07T17:02:37;8.80;;;5.07;;
45970;SDS011;31681;48.982;8.394;2023-03-07T17:05:03;8.20;;;5.17;;
45970;SDS011;31681;48.982;8.394;2023-03-07T17:07:28;8.03;;;4.70;;
45970;SDS011;31681;48.982;8.394;2023-03-07T17:09:55;8.47;;;4.67;;
45970;SDS011;31681;48.982;8.394;2023-03-07T17:12:22;9.80;;;5.50;;
45970;SDS011;31681;48.982;8.394;2023-03-07T17:14:48;9.67;;;5.80;;